sensor_id;sensor_type;location;lat;lon;timestamp;temperature;humidity
22984;DHT22;11658;48.908;9.140;2023-08-21T04:00:41;21.60;99.90
22984;DHT22;11658;48.908;9.140;2023-08-21T04:03:07;21.50;99.90
22984;DHT22;11658;48.908;9.140;2023-08-21T04:05:32;21.50;99.90
22984;DHT22;11658;48.908;9.140;2023-08-21T04:07:58;21.50;99.90
22984;DHT22;11658;48.908;9.140;2023-08-21T04:10:24;21.50;99.90
22984;DHT22;11658;48.908;9.140;2023-08-21T04:12:49;21.50;99.90
22984;DHT22;11658;48.908;9.140;2023-08-21T04:15:15;21.40;99.90
22984;DHT22;11658;48.908;9.140;2023-08-21T04:17:40;21.40;99.90
22984;DHT22;11658;48.908;9.140;2023-08-21T04:20:06;21.40;99.90
22984;DHT22;11658;48.908;9.140;2023-08-21T04:22:32;21.40;99.90
22984;DHT22;11658;48.908;9.140;2023-08-21T04:24:58;21.40;99.90
22984;DHT22;11658;48.908;9.140;2023-08-21T04:29:52;21.40;99.90
22984;DHT22;11658;48.908;9.140;2023-08-21T04:32:18;21.40;99.90
22984;DHT22;11658;48.908;9.140;2023-08-21T04:34:43;21.40;99.90
22984;DHT22;11658;48.908;9.140;2023-08-21T04:37:09;21.30;99.90
22984;DHT22;11658;48.908;9.140;2023-08-21T04:39:34;21.30;99.90
22984;DHT22;11658;48.908;9.140;2023-08-21T04:42:02;21.40;99.90
22984;DHT22;11658;48.908;9.140;2023-08-21T04:44:27;21.40;99.90
22984;DHT22;11658;48.908;9.140;2023-08-21T04:46:53;21.40;99.90
22984;DHT22;11658;48.908;9.140;2023-08-21T04:49:18;21.40;99.90
22984;DHT22;11658;48.908;9.140;2023-08-21T04:51:44;21.30;99.90
22984;DHT22;11658;48.908;9.140;2023-08-21T04:54:09;21.30;99.90
22984;DHT22;11658;48.908;9.140;2023-08-21T04:56:35;21.20;99.90
22984;DHT22;11658;48.908;9.140;2023-08-21T04:59:01;21.20;99.90
22984;DHT22;11658;48.908;9.140;2023-08-21T05:01:26;21.20;99.90
22984;DHT22;11658;48.908;9.140;2023-08-21T05:03:52;21.30;99.90
22984;DHT22;11658;48.908;9.140;2023-08-21T05:06:19;21.30;99.90
22984;DHT22;11658;48.908;9.140;2023-08-21T05:08:45;21.40;99.90
22984;DHT22;11658;48.908;9.140;2023-08-21T05:11:10;21.50;99.90
22984;DHT22;11658;48.908;9.140;2023-08-21T05:13:36;21.70;99.90
22984;DHT22;11658;48.908;9.140;2023-08-21T05:16:02;22.20;99.90
22984;DHT22;11658;48.908;9.140;2023-08-21T05:18:27;22.80;99.90
22984;DHT22;11658;48.908;9.140;2023-08-21T05:20:55;23.00;99.90
22984;DHT22;11658;48.908;9.140;2023-08-21T05:23:21;22.90;99.90
22984;DHT22;11658;48.908;9.140;2023-08-21T05:25:48;22.60;99.90
22984;DHT22;11658;48.908;9.140;2023-08-21T05:28:14;22.50;99.90
22984;DHT22;11658;48.908;9.140;2023-08-21T05:30:39;22.50;99.90
22984;DHT22;11658;48.908;9.140;2023-08-21T05:33:05;22.40;99.90
22984;DHT22;11658;48.908;9.140;2023-08-21T05:35:37;22.30;99.90
22984;DHT22;11658;48.908;9.140;2023-08-21T05:38:03;22.30;99.90
22984;DHT22;11658;48.908;9.140;2023-08-21T05:40:29;22.30;99.90
22984;DHT22;11658;48.908;9.140;2023-08-21T05:42:54;22.30;99.90
22984;DHT22;11658;48.908;9.140;2023-08-21T05:45:20;22.50;99.90
22984;DHT22;11658;48.908;9.140;2023-08-21T05:47:45;22.60;99.90
22984;DHT22;11658;48.908;9.140;2023-08-21T05:50:11;22.80;99.90
22984;DHT22;11658;48.908;9.140;2023-08-21T05:52:37;22.90;99.90
22984;DHT22;11658;48.908;9.140;2023-08-21T05:55:02;23.10;99.90
22984;DHT22;11658;48.908;9.140;2023-08-21T05:57:28;23.20;99.90
22984;DHT22;11658;48.908;9.140;2023-08-21T05:59:54;23.30;99.90
22984;DHT22;11658;48.908;9.140;2023-08-21T06:02:19;23.80;99.90
22984;DHT22;11658;48.908;9.140;2023-08-21T06:04:45;24.20;99.90
22984;DHT22;11658;48.908;9.140;2023-08-21T06:07:10;24.40;99.90
22984;DHT22;11658;48.908;9.140;2023-08-21T06:09:36;24.50;99.90
22984;DHT22;11658;48.908;9.140;2023-08-21T06:12:05;24.50;99.90
22984;DHT22;11658;48.908;9.140;2023-08-21T06:14:31;24.40;99.90
22984;DHT22;11658;48.908;9.140;2023-08-21T06:17:00;24.40;99.90
22984;DHT22;11658;48.908;9.140;2023-08-21T06:19:26;24.40;99.90
22984;DHT22;11658;48.908;9.140;2023-08-21T06:21:52;24.50;99.90
22984;DHT22;11658;48.908;9.140;2023-08-21T06:24:18;24.70;99.90
22984;DHT22;11658;48.908;9.140;2023-08-21T06:26:43;24.80;99.90
22984;DHT22;11658;48.908;9.140;2023-08-21T06:29:09;25.10;99.90
22984;DHT22;11658;48.908;9.140;2023-08-21T06:31:34;24.90;99.90
22984;DHT22;11658;48.908;9.140;2023-08-21T06:34:00;25.00;99.90
22984;DHT22;11658;48.908;9.140;2023-08-21T06:36:25;25.00;99.90
22984;DHT22;11658;48.908;9.140;2023-08-21T06:38:51;25.10;99.90
22984;DHT22;11658;48.908;9.140;2023-08-21T06:41:17;25.20;99.90
22984;DHT22;11658;48.908;9.140;2023-08-21T06:43:42;25.30;99.90
22984;DHT22;11658;48.908;9.140;2023-08-21T06:46:08;25.30;99.90
22984;DHT22;11658;48.908;9.140;2023-08-21T06:48:37;25.30;99.90
22984;DHT22;11658;48.908;9.140;2023-08-21T06:51:03;25.30;99.90
22984;DHT22;11658;48.908;9.140;2023-08-21T06:53:29;25.40;99.90
22984;DHT22;11658;48.908;9.140;2023-08-21T06:55:54;25.50;99.90
22984;DHT22;11658;48.908;9.140;2023-08-21T06:58:21;25.60;99.90
22984;DHT22;11658;48.908;9.140;2023-08-21T07:00:46;25.70;99.90
22984;DHT22;11658;48.908;9.140;2023-08-21T07:03:12;25.80;99.90
22984;DHT22;11658;48.908;9.140;2023-08-21T07:05:38;25.90;99.90
22984;DHT22;11658;48.908;9.140;2023-08-21T07:08:03;25.90;99.90
22984;DHT22;11658;48.908;9.140;2023-08-21T07:10:29;26.00;99.90
22984;DHT22;11658;48.908;9.140;2023-08-21T07:12:55;26.10;99.90
22984;DHT22;11658;48.908;9.140;2023-08-21T07:15:21;26.30;99.90
22984;DHT22;11658;48.908;9.140;2023-08-21T07:17:47;26.30;99.90
22984;DHT22;11658;48.908;9.140;2023-08-21T07:20:12;26.30;99.90
22984;DHT22;11658;48.908;9.140;2023-08-21T07:22:38;26.30;99.90
22984;DHT22;11658;48.908;9.140;2023-08-21T07:25:04;26.30;99.90
22984;DHT22;11658;48.908;9.140;2023-08-21T07:27:33;26.20;99.90
22984;DHT22;11658;48.908;9.140;2023-08-21T07:29:59;26.20;99.90
22984;DHT22;11658;48.908;9.140;2023-08-21T07:32:24;26.20;99.90
22984;DHT22;11658;48.908;9.140;2023-08-21T07:34:54;26.20;99.90
22984;DHT22;11658;48.908;9.140;2023-08-21T07:37:20;26.10;99.90
22984;DHT22;11658;48.908;9.140;2023-08-21T07:39:45;26.00;99.90
22984;DHT22;11658;48.908;9.140;2023-08-21T07:42:11;26.10;99.90
22984;DHT22;11658;48.908;9.140;2023-08-21T07:44:39;26.10;99.90
22984;DHT22;11658;48.908;9.140;2023-08-21T07:47:05;26.30;99.90
22984;DHT22;11658;48.908;9.140;2023-08-21T07:49:32;26.50;99.90
22984;DHT22;11658;48.908;9.140;2023-08-21T07:51:57;26.50;99.90
22984;DHT22;11658;48.908;9.140;2023-08-21T07:54:23;26.40;99.90
22984;DHT22;11658;48.908;9.140;2023-08-21T07:56:50;26.40;99.90
22984;DHT22;11658;48.908;9.140;2023-08-21T07:59:16;26.40;99.90
22984;DHT22;11658;48.908;9.140;2023-08-21T08:01:41;26.60;99.90
22984;DHT22;11658;48.908;9.140;2023-08-21T08:04:07;26.60;99.90
22984;DHT22;11658;48.908;9.140;2023-08-21T08:06:32;26.50;99.90
22984;DHT22;11658;48.908;9.140;2023-08-21T08:08:58;26.30;99.90
22984;DHT22;11658;48.908;9.140;2023-08-21T08:11:24;26.40;99.90
22984;DHT22;11658;48.908;9.140;2023-08-21T08:13:49;26.80;99.90
22984;DHT22;11658;48.908;9.140;2023-08-21T08:16:15;26.80;99.90
22984;DHT22;11658;48.908;9.140;2023-08-21T08:18:42;26.90;99.90
22984;DHT22;11658;48.908;9.140;2023-08-21T08:21:07;26.70;99.90
22984;DHT22;11658;48.908;9.140;2023-08-21T08:23:34;26.70;99.90
22984;DHT22;11658;48.908;9.140;2023-08-21T08:26:00;26.50;99.90
22984;DHT22;11658;48.908;9.140;2023-08-21T08:28:26;26.50;99.90
22984;DHT22;11658;48.908;9.140;2023-08-21T08:30:51;26.70;99.90
22984;DHT22;11658;48.908;9.140;2023-08-21T08:33:17;26.90;99.90
22984;DHT22;11658;48.908;9.140;2023-08-21T08:35:43;27.00;99.90
22984;DHT22;11658;48.908;9.140;2023-08-21T08:38:09;27.10;99.90
22984;DHT22;11658;48.908;9.140;2023-08-21T08:40:40;27.30;99.90
22984;DHT22;11658;48.908;9.140;2023-08-21T08:43:07;27.50;99.90
22984;DHT22;11658;48.908;9.140;2023-08-21T08:45:34;27.50;99.90
22984;DHT22;11658;48.908;9.140;2023-08-21T08:48:00;27.50;99.90
22984;DHT22;11658;48.908;9.140;2023-08-21T08:50:29;27.60;99.90
22984;DHT22;11658;48.908;9.140;2023-08-21T08:52:55;27.60;99.90
22984;DHT22;11658;48.908;9.140;2023-08-21T08:55:22;27.50;99.90
22984;DHT22;11658;48.908;9.140;2023-08-21T08:57:48;27.60;99.90
22984;DHT22;11658;48.908;9.140;2023-08-21T09:00:14;27.60;99.90
22984;DHT22;11658;48.908;9.140;2023-08-21T09:02:39;27.70;99.90
22984;DHT22;11658;48.908;9.140;2023-08-21T09:05:05;27.50;99.90
22984;DHT22;11658;48.908;9.140;2023-08-21T09:07:32;27.60;99.90
22984;DHT22;11658;48.908;9.140;2023-08-21T09:09:57;27.60;99.90
22984;DHT22;11658;48.908;9.140;2023-08-21T09:12:23;27.80;99.90
22984;DHT22;11658;48.908;9.140;2023-08-21T09:14:49;28.10;99.90
22984;DHT22;11658;48.908;9.140;2023-08-21T09:17:15;28.00;99.90
22984;DHT22;11658;48.908;9.140;2023-08-21T09:19:41;28.20;99.90
22984;DHT22;11658;48.908;9.140;2023-08-21T09:22:17;28.50;99.90
22984;DHT22;11658;48.908;9.140;2023-08-21T09:25:19;28.70;99.90
22984;DHT22;11658;48.908;9.140;2023-08-21T09:27:45;29.00;99.90
22984;DHT22;11658;48.908;9.140;2023-08-21T09:30:10;29.20;99.90
22984;DHT22;11658;48.908;9.140;2023-08-21T09:32:57;29.30;99.90
22984;DHT22;11658;48.908;9.140;2023-08-21T09:35:23;29.40;99.90
22984;DHT22;11658;48.908;9.140;2023-08-21T09:37:49;29.40;99.90
22984;DHT22;11658;48.908;9.140;2023-08-21T09:40:15;29.10;99.90
22984;DHT22;11658;48.908;9.140;2023-08-21T09:42:41;28.90;99.90
22984;DHT22;11658;48.908;9.140;2023-08-21T09:45:08;28.80;99.90
22984;DHT22;11658;48.908;9.140;2023-08-21T09:47:33;28.80;99.90
22984;DHT22;11658;48.908;9.140;2023-08-21T09:50:00;28.80;99.90
22984;DHT22;11658;48.908;9.140;2023-08-21T09:52:26;28.90;99.90
22984;DHT22;11658;48.908;9.140;2023-08-21T09:54:57;29.10;99.90
22984;DHT22;11658;48.908;9.140;2023-08-21T09:57:23;29.30;99.90
22984;DHT22;11658;48.908;9.140;2023-08-21T09:59:53;29.50;99.90
22984;DHT22;11658;48.908;9.140;2023-08-21T10:02:23;29.50;99.90
22984;DHT22;11658;48.908;9.140;2023-08-21T10:04:49;29.50;99.90
22984;DHT22;11658;48.908;9.140;2023-08-21T10:07:16;29.60;99.90
22984;DHT22;11658;48.908;9.140;2023-08-21T10:09:46;29.70;99.90
22984;DHT22;11658;48.908;9.140;2023-08-21T10:12:14;29.90;99.90
22984;DHT22;11658;48.908;9.140;2023-08-21T10:14:41;30.10;99.90
22984;DHT22;11658;48.908;9.140;2023-08-21T10:17:07;30.10;99.90
22984;DHT22;11658;48.908;9.140;2023-08-21T10:19:34;30.00;99.90
22984;DHT22;11658;48.908;9.140;2023-08-21T10:22:00;30.00;99.90
22984;DHT22;11658;48.908;9.140;2023-08-21T10:24:37;30.10;99.90
22984;DHT22;11658;48.908;9.140;2023-08-21T10:27:06;30.20;99.90
22984;DHT22;11658;48.908;9.140;2023-08-21T10:29:31;30.10;99.90
22984;DHT22;11658;48.908;9.140;2023-08-21T10:32:02;30.10;99.90
22984;DHT22;11658;48.908;9.140;2023-08-21T10:34:36;30.30;99.90
22984;DHT22;11658;48.908;9.140;2023-08-21T10:37:05;30.60;99.90
22984;DHT22;11658;48.908;9.140;2023-08-21T10:39:32;30.50;99.90
22984;DHT22;11658;48.908;9.140;2023-08-21T10:42:02;30.60;99.90
22984;DHT22;11658;48.908;9.140;2023-08-21T10:47:31;30.80;99.90
22984;DHT22;11658;48.908;9.140;2023-08-21T10:50:02;30.50;99.90
22984;DHT22;11658;48.908;9.140;2023-08-21T10:52:39;30.50;99.90
22984;DHT22;11658;48.908;9.140;2023-08-21T10:55:09;30.50;99.90
22984;DHT22;11658;48.908;9.140;2023-08-21T10:57:35;30.60;99.90
22984;DHT22;11658;48.908;9.140;2023-08-21T11:00:04;30.80;99.90
22984;DHT22;11658;48.908;9.140;2023-08-21T11:02:31;31.00;99.90
22984;DHT22;11658;48.908;9.140;2023-08-21T11:04:58;31.20;99.90
22984;DHT22;11658;48.908;9.140;2023-08-21T11:07:24;31.20;99.90
22984;DHT22;11658;48.908;9.140;2023-08-21T11:09:50;31.00;99.90
22984;DHT22;11658;48.908;9.140;2023-08-21T11:12:23;31.00;99.90
22984;DHT22;11658;48.908;9.140;2023-08-21T11:14:50;31.20;99.90
22984;DHT22;11658;48.908;9.140;2023-08-21T11:17:15;31.10;99.90
22984;DHT22;11658;48.908;9.140;2023-08-21T11:19:42;30.90;99.90
22984;DHT22;11658;48.908;9.140;2023-08-21T11:22:08;30.80;99.90
22984;DHT22;11658;48.908;9.140;2023-08-21T11:27:09;30.80;99.90
22984;DHT22;11658;48.908;9.140;2023-08-21T11:29:39;30.70;99.90
22984;DHT22;11658;48.908;9.140;2023-08-21T11:32:12;30.80;99.90
22984;DHT22;11658;48.908;9.140;2023-08-21T11:34:40;31.00;99.90
22984;DHT22;11658;48.908;9.140;2023-08-21T11:37:06;31.20;99.90
22984;DHT22;11658;48.908;9.140;2023-08-21T11:39:40;31.20;99.90
22984;DHT22;11658;48.908;9.140;2023-08-21T11:42:09;31.30;99.90
22984;DHT22;11658;48.908;9.140;2023-08-21T11:44:49;31.40;99.90
22984;DHT22;11658;48.908;9.140;2023-08-21T11:47:17;31.30;99.90
22984;DHT22;11658;48.908;9.140;2023-08-21T11:49:44;31.50;99.90
22984;DHT22;11658;48.908;9.140;2023-08-21T11:52:13;31.50;99.90
22984;DHT22;11658;48.908;9.140;2023-08-21T11:54:40;31.40;99.90
22984;DHT22;11658;48.908;9.140;2023-08-21T11:57:12;31.30;99.90
22984;DHT22;11658;48.908;9.140;2023-08-21T11:59:39;31.20;99.90
22984;DHT22;11658;48.908;9.140;2023-08-21T12:02:19;31.20;99.90
22984;DHT22;11658;48.908;9.140;2023-08-21T12:04:44;31.30;99.90
22984;DHT22;11658;48.908;9.140;2023-08-21T12:07:12;31.30;99.90
22984;DHT22;11658;48.908;9.140;2023-08-21T12:09:38;31.30;99.90
22984;DHT22;11658;48.908;9.140;2023-08-21T12:12:04;31.40;99.90
22984;DHT22;11658;48.908;9.140;2023-08-21T12:14:30;31.40;99.90
22984;DHT22;11658;48.908;9.140;2023-08-21T12:16:56;31.40;99.90
22984;DHT22;11658;48.908;9.140;2023-08-21T12:19:24;31.60;99.90
22984;DHT22;11658;48.908;9.140;2023-08-21T12:21:50;31.80;99.90
22984;DHT22;11658;48.908;9.140;2023-08-21T12:24:16;31.80;99.90
22984;DHT22;11658;48.908;9.140;2023-08-21T12:26:42;31.70;99.90
22984;DHT22;11658;48.908;9.140;2023-08-21T12:29:08;31.70;99.90
22984;DHT22;11658;48.908;9.140;2023-08-21T12:31:33;31.50;99.90
22984;DHT22;11658;48.908;9.140;2023-08-21T12:33:59;31.30;99.90
22984;DHT22;11658;48.908;9.140;2023-08-21T12:36:25;31.30;99.90
22984;DHT22;11658;48.908;9.140;2023-08-21T12:38:51;31.60;99.90
22984;DHT22;11658;48.908;9.140;2023-08-21T12:41:16;31.80;99.90
22984;DHT22;11658;48.908;9.140;2023-08-21T12:43:42;31.90;99.90
22984;DHT22;11658;48.908;9.140;2023-08-21T12:46:07;31.90;99.90
22984;DHT22;11658;48.908;9.140;2023-08-21T12:48:33;32.00;99.90
22984;DHT22;11658;48.908;9.140;2023-08-21T12:50:59;32.20;99.90
22984;DHT22;11658;48.908;9.140;2023-08-21T12:53:24;32.40;99.90
22984;DHT22;11658;48.908;9.140;2023-08-21T12:55:50;32.20;99.90
22984;DHT22;11658;48.908;9.140;2023-08-21T12:58:15;32.20;99.90
22984;DHT22;11658;48.908;9.140;2023-08-21T13:00:41;32.20;99.90
22984;DHT22;11658;48.908;9.140;2023-08-21T13:03:07;32.40;99.90
22984;DHT22;11658;48.908;9.140;2023-08-21T13:05:33;32.60;99.90
22984;DHT22;11658;48.908;9.140;2023-08-21T13:08:01;32.80;99.90
22984;DHT22;11658;48.908;9.140;2023-08-21T13:10:26;33.20;99.90
22984;DHT22;11658;48.908;9.140;2023-08-21T13:12:52;33.30;99.90
22984;DHT22;11658;48.908;9.140;2023-08-21T13:15:18;33.40;99.90
22984;DHT22;11658;48.908;9.140;2023-08-21T13:17:43;33.50;99.90
22984;DHT22;11658;48.908;9.140;2023-08-21T13:20:09;33.50;99.90
22984;DHT22;11658;48.908;9.140;2023-08-21T13:22:48;33.30;99.90
22984;DHT22;11658;48.908;9.140;2023-08-21T13:25:15;33.00;99.90
22984;DHT22;11658;48.908;9.140;2023-08-21T13:27:41;32.90;99.90
22984;DHT22;11658;48.908;9.140;2023-08-21T13:30:07;32.80;99.90
22984;DHT22;11658;48.908;9.140;2023-08-21T13:32:33;32.80;99.90
22984;DHT22;11658;48.908;9.140;2023-08-21T13:34:59;32.90;99.90
22984;DHT22;11658;48.908;9.140;2023-08-21T13:37:25;32.90;99.90
22984;DHT22;11658;48.908;9.140;2023-08-21T13:39:52;32.70;99.90
22984;DHT22;11658;48.908;9.140;2023-08-21T13:42:17;32.50;99.90
22984;DHT22;11658;48.908;9.140;2023-08-21T13:44:43;32.50;99.90
22984;DHT22;11658;48.908;9.140;2023-08-21T13:47:10;32.60;99.90
22984;DHT22;11658;48.908;9.140;2023-08-21T13:49:37;32.60;99.90
22984;DHT22;11658;48.908;9.140;2023-08-21T13:52:02;32.70;99.90
22984;DHT22;11658;48.908;9.140;2023-08-21T13:54:28;32.80;99.90
22984;DHT22;11658;48.908;9.140;2023-08-21T13:56:54;32.70;99.90
22984;DHT22;11658;48.908;9.140;2023-08-21T13:59:20;32.70;99.90
22984;DHT22;11658;48.908;9.140;2023-08-21T14:01:46;32.60;99.90
22984;DHT22;11658;48.908;9.140;2023-08-21T14:04:11;32.50;99.90
22984;DHT22;11658;48.908;9.140;2023-08-21T14:06:37;32.50;99.90
22984;DHT22;11658;48.908;9.140;2023-08-21T14:09:02;32.50;99.90
22984;DHT22;11658;48.908;9.140;2023-08-21T14:11:28;32.30;99.90
22984;DHT22;11658;48.908;9.140;2023-08-21T14:13:53;32.40;99.90
22984;DHT22;11658;48.908;9.140;2023-08-21T14:16:19;32.30;99.90
22984;DHT22;11658;48.908;9.140;2023-08-21T14:18:45;32.30;99.90
22984;DHT22;11658;48.908;9.140;2023-08-21T14:21:10;32.20;99.90
22984;DHT22;11658;48.908;9.140;2023-08-21T14:23:36;32.40;99.90
22984;DHT22;11658;48.908;9.140;2023-08-21T14:26:03;32.50;99.90
22984;DHT22;11658;48.908;9.140;2023-08-21T14:28:29;32.60;99.90
22984;DHT22;11658;48.908;9.140;2023-08-21T14:30:54;32.70;99.90
22984;DHT22;11658;48.908;9.140;2023-08-21T14:33:20;32.60;99.90
22984;DHT22;11658;48.908;9.140;2023-08-21T14:35:46;32.50;99.90
22984;DHT22;11658;48.908;9.140;2023-08-21T14:38:12;32.50;99.90
22984;DHT22;11658;48.908;9.140;2023-08-21T14:40:37;32.30;99.90
22984;DHT22;11658;48.908;9.140;2023-08-21T14:43:03;32.40;99.90
22984;DHT22;11658;48.908;9.140;2023-08-21T14:45:28;32.50;99.90
22984;DHT22;11658;48.908;9.140;2023-08-21T14:47:54;32.50;99.90
22984;DHT22;11658;48.908;9.140;2023-08-21T14:50:20;32.50;99.90
22984;DHT22;11658;48.908;9.140;2023-08-21T14:52:45;32.40;99.90
22984;DHT22;11658;48.908;9.140;2023-08-21T14:55:13;32.30;99.90
22984;DHT22;11658;48.908;9.140;2023-08-21T14:57:39;32.30;99.90
22984;DHT22;11658;48.908;9.140;2023-08-21T15:00:07;32.20;99.90
22984;DHT22;11658;48.908;9.140;2023-08-21T15:02:35;32.10;99.90
22984;DHT22;11658;48.908;9.140;2023-08-21T15:05:02;32.30;99.90
22984;DHT22;11658;48.908;9.140;2023-08-21T15:07:30;32.10;99.90
22984;DHT22;11658;48.908;9.140;2023-08-21T15:09:56;32.20;99.90
22984;DHT22;11658;48.908;9.140;2023-08-21T15:12:21;32.30;99.90
22984;DHT22;11658;48.908;9.140;2023-08-21T15:14:47;32.30;99.90
22984;DHT22;11658;48.908;9.140;2023-08-21T15:17:13;32.40;99.90
22984;DHT22;11658;48.908;9.140;2023-08-21T15:19:38;32.50;99.90
22984;DHT22;11658;48.908;9.140;2023-08-21T15:22:04;32.60;99.90
22984;DHT22;11658;48.908;9.140;2023-08-21T15:24:30;32.60;99.90
22984;DHT22;11658;48.908;9.140;2023-08-21T15:26:55;32.70;99.90
22984;DHT22;11658;48.908;9.140;2023-08-21T15:29:21;32.70;99.90
22984;DHT22;11658;48.908;9.140;2023-08-21T15:31:46;32.70;99.90
22984;DHT22;11658;48.908;9.140;2023-08-21T15:34:12;32.70;99.90
22984;DHT22;11658;48.908;9.140;2023-08-21T15:36:38;32.90;99.90
22984;DHT22;11658;48.908;9.140;2023-08-21T15:39:03;32.90;99.90
22984;DHT22;11658;48.908;9.140;2023-08-21T15:41:29;33.00;99.90
22984;DHT22;11658;48.908;9.140;2023-08-21T15:43:54;32.80;99.90
22984;DHT22;11658;48.908;9.140;2023-08-21T15:46:20;32.80;99.90
22984;DHT22;11658;48.908;9.140;2023-08-21T15:48:45;32.70;99.90
22984;DHT22;11658;48.908;9.140;2023-08-21T15:51:11;32.70;99.90
22984;DHT22;11658;48.908;9.140;2023-08-21T15:53:36;32.80;99.90
22984;DHT22;11658;48.908;9.140;2023-08-21T15:56:02;32.70;99.90
22984;DHT22;11658;48.908;9.140;2023-08-21T15:58:28;32.60;99.90
22984;DHT22;11658;48.908;9.140;2023-08-21T16:00:53;32.60;99.90
22984;DHT22;11658;48.908;9.140;2023-08-21T16:03:19;32.30;99.90
22984;DHT22;11658;48.908;9.140;2023-08-21T16:05:45;32.50;99.90
22984;DHT22;11658;48.908;9.140;2023-08-21T16:08:10;32.40;99.90
22984;DHT22;11658;48.908;9.140;2023-08-21T16:10:36;32.30;99.90
22984;DHT22;11658;48.908;9.140;2023-08-21T16:13:02;32.20;99.90
22984;DHT22;11658;48.908;9.140;2023-08-21T16:15:28;32.20;99.90
22984;DHT22;11658;48.908;9.140;2023-08-21T16:17:53;32.30;99.90
22984;DHT22;11658;48.908;9.140;2023-08-21T16:20:19;32.50;99.90
22984;DHT22;11658;48.908;9.140;2023-08-21T16:22:45;32.70;99.90
22984;DHT22;11658;48.908;9.140;2023-08-21T16:25:10;32.70;99.90
22984;DHT22;11658;48.908;9.140;2023-08-21T16:27:39;33.20;99.90
22984;DHT22;11658;48.908;9.140;2023-08-21T16:30:06;33.70;99.90
22984;DHT22;11658;48.908;9.140;2023-08-21T16:32:32;34.60;99.90
22984;DHT22;11658;48.908;9.140;2023-08-21T16:34:57;34.80;99.90
22984;DHT22;11658;48.908;9.140;2023-08-21T16:37:24;35.10;99.90
22984;DHT22;11658;48.908;9.140;2023-08-21T16:39:50;35.30;99.90
22984;DHT22;11658;48.908;9.140;2023-08-21T16:42:15;35.30;99.90
22984;DHT22;11658;48.908;9.140;2023-08-21T16:44:41;35.30;99.90
22984;DHT22;11658;48.908;9.140;2023-08-21T16:47:06;36.00;99.90
22984;DHT22;11658;48.908;9.140;2023-08-21T16:49:33;36.70;99.90
22984;DHT22;11658;48.908;9.140;2023-08-21T16:51:59;37.20;99.90
22984;DHT22;11658;48.908;9.140;2023-08-21T16:54:24;37.80;99.90
22984;DHT22;11658;48.908;9.140;2023-08-21T16:56:50;38.40;99.90
22984;DHT22;11658;48.908;9.140;2023-08-21T16:59:16;38.90;99.90
22984;DHT22;11658;48.908;9.140;2023-08-21T17:01:41;39.30;99.90
22984;DHT22;11658;48.908;9.140;2023-08-21T17:04:07;39.60;99.90
22984;DHT22;11658;48.908;9.140;2023-08-21T17:06:32;39.70;99.90
22984;DHT22;11658;48.908;9.140;2023-08-21T17:08:58;39.60;99.90
22984;DHT22;11658;48.908;9.140;2023-08-21T17:11:23;39.30;99.90
22984;DHT22;11658;48.908;9.140;2023-08-21T17:13:49;39.00;99.90
22984;DHT22;11658;48.908;9.140;2023-08-21T17:16:15;39.00;99.90
22984;DHT22;11658;48.908;9.140;2023-08-21T17:18:41;38.20;99.90
22984;DHT22;11658;48.908;9.140;2023-08-21T17:21:06;37.80;99.90
22984;DHT22;11658;48.908;9.140;2023-08-21T17:23:32;37.70;99.90
22984;DHT22;11658;48.908;9.140;2023-08-21T17:25:58;37.30;99.90
22984;DHT22;11658;48.908;9.140;2023-08-21T17:28:23;37.70;99.90
22984;DHT22;11658;48.908;9.140;2023-08-21T17:30:49;38.00;99.90
22984;DHT22;11658;48.908;9.140;2023-08-21T17:33:15;37.90;99.90
22984;DHT22;11658;48.908;9.140;2023-08-21T17:35:40;38.00;99.90
22984;DHT22;11658;48.908;9.140;2023-08-21T17:38:06;38.00;99.90
22984;DHT22;11658;48.908;9.140;2023-08-21T17:40:32;37.80;99.90
22984;DHT22;11658;48.908;9.140;2023-08-21T17:42:57;37.50;99.90
22984;DHT22;11658;48.908;9.140;2023-08-21T17:45:23;36.60;99.90
22984;DHT22;11658;48.908;9.140;2023-08-21T17:47:48;35.40;99.90
22984;DHT22;11658;48.908;9.140;2023-08-21T17:50:14;34.60;99.90
22984;DHT22;11658;48.908;9.140;2023-08-21T17:52:40;34.00;99.90
22984;DHT22;11658;48.908;9.140;2023-08-21T17:55:06;33.50;99.90
22984;DHT22;11658;48.908;9.140;2023-08-21T17:57:32;33.00;99.90
22984;DHT22;11658;48.908;9.140;2023-08-21T17:59:57;32.60;99.90
22984;DHT22;11658;48.908;9.140;2023-08-21T18:02:23;32.10;99.90
22984;DHT22;11658;48.908;9.140;2023-08-21T18:04:48;31.70;99.90
22984;DHT22;11658;48.908;9.140;2023-08-21T18:07:14;31.40;99.90
22984;DHT22;11658;48.908;9.140;2023-08-21T18:09:41;31.10;99.90
22984;DHT22;11658;48.908;9.140;2023-08-21T18:12:07;30.90;99.90
22984;DHT22;11658;48.908;9.140;2023-08-21T18:14:32;30.60;99.90
22984;DHT22;11658;48.908;9.140;2023-08-21T18:17:01;30.30;99.90
22984;DHT22;11658;48.908;9.140;2023-08-21T18:19:34;30.20;99.90
22984;DHT22;11658;48.908;9.140;2023-08-21T18:22:00;30.00;99.90
22984;DHT22;11658;48.908;9.140;2023-08-21T18:24:25;29.80;99.90
22984;DHT22;11658;48.908;9.140;2023-08-21T18:26:51;29.60;99.90
22984;DHT22;11658;48.908;9.140;2023-08-21T18:29:18;29.50;99.90
22984;DHT22;11658;48.908;9.140;2023-08-21T18:31:44;29.40;99.90
22984;DHT22;11658;48.908;9.140;2023-08-21T18:34:09;29.20;99.90
22984;DHT22;11658;48.908;9.140;2023-08-21T18:36:35;29.10;99.90
22984;DHT22;11658;48.908;9.140;2023-08-21T18:39:01;29.00;99.90
22984;DHT22;11658;48.908;9.140;2023-08-21T18:41:27;28.90;99.90
22984;DHT22;11658;48.908;9.140;2023-08-21T18:43:53;28.80;99.90
22984;DHT22;11658;48.908;9.140;2023-08-21T18:46:19;28.60;99.90
22984;DHT22;11658;48.908;9.140;2023-08-21T18:48:45;28.60;99.90
22984;DHT22;11658;48.908;9.140;2023-08-21T18:51:10;28.50;99.90
22984;DHT22;11658;48.908;9.140;2023-08-21T18:53:36;28.40;99.90
22984;DHT22;11658;48.908;9.140;2023-08-21T18:56:02;28.30;99.90
22984;DHT22;11658;48.908;9.140;2023-08-21T18:58:29;28.20;99.90
22984;DHT22;11658;48.908;9.140;2023-08-21T19:00:56;28.10;99.90
22984;DHT22;11658;48.908;9.140;2023-08-21T19:03:22;28.00;99.90
22984;DHT22;11658;48.908;9.140;2023-08-21T19:05:48;28.00;99.90
22984;DHT22;11658;48.908;9.140;2023-08-21T19:08:13;27.90;99.90
22984;DHT22;11658;48.908;9.140;2023-08-21T19:10:39;27.90;99.90
22984;DHT22;11658;48.908;9.140;2023-08-21T19:13:05;27.80;99.90
22984;DHT22;11658;48.908;9.140;2023-08-21T19:15:33;27.80;99.90
22984;DHT22;11658;48.908;9.140;2023-08-21T19:17:59;27.70;99.90
22984;DHT22;11658;48.908;9.140;2023-08-21T19:20:27;27.70;99.90
22984;DHT22;11658;48.908;9.140;2023-08-21T19:22:53;27.60;99.90
22984;DHT22;11658;48.908;9.140;2023-08-21T19:25:19;27.50;99.90
22984;DHT22;11658;48.908;9.140;2023-08-21T19:27:45;27.40;99.90
22984;DHT22;11658;48.908;9.140;2023-08-21T19:30:11;27.30;99.90
22984;DHT22;11658;48.908;9.140;2023-08-21T19:32:38;27.30;99.90